Palau, PW

5:39 PM PWT on October 23, 2014 (GMT +0900)
Guam International | Change Station
CLOSE
Current Station
Airport
Location: Guam Agana,
Elevation: 269 ft
Nearby Weather Stations

Elev 269 ft 13.48 °N, 144.80 °E | Updated 18 minutes ago

Thunderstorms and Rain
Thunderstorm Rain
77 °F
Feels Like 77 °F
N
12
Wind Variable Wind from ENE

Today
High -- | Low -- °F
--% Chance of Precip.
Yesterday
High -- | Low -- °F
Precip. -- in
5:48 AM 5:43 PM
Waning Crescent, 0% visible
Pressure 29.83 in
Visibility 4.0 miles
Clouds Few 1000 ft
Scattered Clouds 1500 ft
Overcast 3100 ft
Dew Point 73 °F
Humidity 89%
Rainfall 1.70 in
Snow Depth Not available.
UV 0 out of 12
Pollen Not available.
Air Quality Not available.
Flu Activity
SPECI PGUM 230821Z 06010KT 4SM TSRA FEW010 SCT015CB OVC031 25/23 A2983 RMK AO2 OCNL LTGICCG ALQDS TS N MOV W P0033

More Conditions Fewer Conditions

Pressure 29.83 in
Visibility 4.0 miles
Clouds Few 1000 ft
Scattered Clouds 1500 ft
Overcast 3100 ft
Dew Point 73 °F
Humidity 89%
Rainfall 1.70 in
Snow Depth Not available.
UV 0 out of 12
Pollen Not available.
Air Quality Not available.
Flu Activity
SPECI PGUM 230821Z 06010KT 4SM TSRA FEW010 SCT015CB OVC031 25/23 A2983 RMK AO2 OCNL LTGICCG ALQDS TS N MOV W P0033

More Conditions Fewer Conditions

10-Day Weather Forecast

Almanac

Astronomy

Oct. 23, 2014 Rise Set
Actual Time 5:48 AM PWT 5:43 PM PWT
Civil Twilight 5:27 AM PWT 6:04 PM PWT
Nautical Twilight 5:02 AM PWT 6:29 PM PWT
Astronomical Twilight 4:38 AM PWT 6:53 PM PWT
Moon 5:02 AM PWT 5:16 PM PWT
Length of Visible Light 12h 37m
Length of Day
11h 54m
Tomorrow will be 0m 23s shorter.
Waning Crescent, 0% of the Moon is Illuminated
Today
Waning Crescent
Oct 23
New
Oct 30
First Quarter
Nov 6
Full
Nov 14
Last Quarter

Community

WunderPhotos

Upload Photos

1,764,197 photos uploaded!

Nearby

Snow Depth

Station Depth Elevation
No new snow has been reported.

Earthquake Activity

City Distance Mag. Time & Date
No recent earthquake activity has been reported nearby.
Minimum magnitude displayed is 2.5.

Coastal Water Temperatures

Place Temperature
No Stations Reporting

Nearby Weather Stations